Time;durP1;ratioP1;P1;durP2;ratioP2;P2;SDS_P1;SDS_P2;PMS_P1;PMS_P2;Temp;Humidity;BMP_temperature;BMP_pressure;BME280_temperature;BME280_humidity;BME280_pressure;Samples;Min_cycle;Max_cycle;Signal;HPM_P1;HPM_P2
2023/09/03 00:00:39;;;;;;;8.30;4.20;;;;;;;;;;5027290;28;20442;-79
2023/09/03 00:03:06;;;;;;;5.37;3.97;;;;;;;;;;5026979;28;20466;-79
2023/09/03 00:05:34;;;;;;;4.67;3.00;;;;;;;;;;5026324;28;20753;-79
2023/09/03 00:08:04;;;;;;;5.93;3.37;;;;;;;;;;5023773;28;20993;-78
2023/09/03 00:10:35;;;;;;;6.80;3.33;;;;;;;;;;5026288;28;20463;-78
2023/09/03 00:13:03;;;;;;;6.70;3.10;;;;;;;;;;5024591;28;20455;-79
2023/09/03 00:15:31;;;;;;;6.63;4.23;;;;;;;;;;5023808;28;20447;-77
2023/09/03 00:17:58;;;;;;;6.13;4.00;;;;;;;;;;5022871;28;20951;-80
2023/09/03 00:20:25;;;;;;;5.47;3.40;;;;;;;;;;5023985;28;20586;-79
2023/09/03 00:22:53;;;;;;;8.10;3.80;;;;;;;;;;5023400;28;20474;-80
2023/09/03 00:25:23;;;;;;;6.43;3.63;;;;;;;;;;5025129;28;20720;-80
2023/09/03 00:27:50;;;;;;;8.00;3.80;;;;;;;;;;5022803;28;20452;-80
2023/09/03 00:30:21;;;;;;;6.93;3.90;;;;;;;;;;5024004;28;20812;-80
2023/09/03 00:32:48;;;;;;;5.37;3.37;;;;;;;;;;5020267;28;20459;-78
2023/09/03 00:35:17;;;;;;;8.03;3.87;;;;;;;;;;5022149;28;20456;-78
2023/09/03 00:37:45;;;;;;;6.83;3.60;;;;;;;;;;5021390;28;20771;-80
2023/09/03 00:40:17;;;;;;;5.53;3.37;;;;;;;;;;5024342;28;20609;-79
2023/09/03 00:42:46;;;;;;;7.03;4.20;;;;;;;;;;5026345;28;20517;-78
2023/09/03 00:45:17;;;;;;;6.33;4.47;;;;;;;;;;5025134;28;20450;-79
2023/09/03 00:47:47;;;;;;;7.37;4.07;;;;;;;;;;5028295;28;20823;-79
2023/09/03 00:50:21;;;;;;;5.27;3.43;;;;;;;;;;5023171;28;20590;-80
2023/09/03 00:52:55;;;;;;;6.50;4.30;;;;;;;;;;5027103;28;20454;-78
2023/09/03 00:55:23;;;;;;;5.80;3.30;;;;;;;;;;5023866;28;20451;-79
2023/09/03 00:57:52;;;;;;;9.00;4.00;;;;;;;;;;5025446;28;20534;-79
2023/09/03 01:00:20;;;;;;;7.20;4.20;;;;;;;;;;5023372;28;20921;-78
2023/09/03 01:02:48;;;;;;;5.77;4.00;;;;;;;;;;5025262;28;20455;-78
2023/09/03 01:05:16;;;;;;;7.13;4.30;;;;;;;;;;5023483;28;20666;-79
2023/09/03 01:07:43;;;;;;;7.10;4.20;;;;;;;;;;5023663;28;20455;-78
2023/09/03 01:10:15;;;;;;;6.20;5.07;;;;;;;;;;5022980;28;20733;-78
2023/09/03 01:12:48;;;;;;;6.40;4.47;;;;;;;;;;5020882;28;20542;-79
2023/09/03 01:15:24;;;;;;;7.40;4.67;;;;;;;;;;5026648;28;20462;-78
2023/09/03 01:17:58;;;;;;;8.30;6.03;;;;;;;;;;5022313;28;20552;-79
2023/09/03 01:20:28;;;;;;;7.00;4.10;;;;;;;;;;5024928;28;20475;-79
2023/09/03 01:23:10;;;;;;;5.33;3.40;;;;;;;;;;5025577;28;20455;-80
2023/09/03 01:25:47;;;;;;;7.40;4.00;;;;;;;;;;5028489;28;20443;-79
2023/09/03 01:28:22;;;;;;;5.60;3.90;;;;;;;;;;5025826;28;20459;-79
2023/09/03 01:30:49;;;;;;;6.57;4.13;;;;;;;;;;5027675;28;20486;-80
2023/09/03 01:33:17;;;;;;;5.03;3.67;;;;;;;;;;5030249;28;20439;-78
2023/09/03 01:35:47;;;;;;;6.53;3.30;;;;;;;;;;5026076;28;20455;-80
2023/09/03 01:38:14;;;;;;;6.87;4.00;;;;;;;;;;5013343;28;20472;-80
2023/09/03 01:40:42;;;;;;;6.93;3.83;;;;;;;;;;5025985;28;20558;-78
2023/09/03 01:43:09;;;;;;;6.17;3.53;;;;;;;;;;5024115;28;20854;-79
2023/09/03 01:45:45;;;;;;;10.47;4.13;;;;;;;;;;5025008;28;20448;-79
2023/09/03 01:48:15;;;;;;;7.57;5.03;;;;;;;;;;5028472;28;20443;-80
2023/09/03 01:50:45;;;;;;;11.90;4.07;;;;;;;;;;5025194;28;20482;-79
2023/09/03 01:53:19;;;;;;;6.13;3.50;;;;;;;;;;5026225;28;20447;-79
2023/09/03 01:55:49;;;;;;;7.10;4.47;;;;;;;;;;5022001;28;20525;-80
2023/09/03 01:58:18;;;;;;;5.33;3.30;;;;;;;;;;5023087;28;20470;-81
2023/09/03 02:00:49;;;;;;;5.50;4.40;;;;;;;;;;5023276;28;21014;-80
2023/09/03 02:03:17;;;;;;;7.10;4.70;;;;;;;;;;5023455;28;20491;-79
2023/09/03 02:05:44;;;;;;;5.13;3.37;;;;;;;;;;5022998;28;20486;-79
2023/09/03 02:08:13;;;;;;;5.70;4.10;;;;;;;;;;5022877;28;20696;-79
2023/09/03 02:10:40;;;;;;;8.50;3.97;;;;;;;;;;5025705;28;20455;-79
2023/09/03 02:13:08;;;;;;;5.83;3.50;;;;;;;;;;5023170;28;20482;-80
2023/09/03 02:15:35;;;;;;;7.13;3.63;;;;;;;;;;5024270;28;20607;-77
2023/09/03 02:18:04;;;;;;;5.83;3.50;;;;;;;;;;5026121;28;20458;-80
2023/09/03 02:20:32;;;;;;;5.70;3.23;;;;;;;;;;5029333;28;20563;-79
2023/09/03 02:22:59;;;;;;;5.33;3.70;;;;;;;;;;5027580;28;20549;-80
2023/09/03 02:25:27;;;;;;;5.80;3.60;;;;;;;;;;5027101;28;20463;-79
2023/09/03 02:27:54;;;;;;;5.80;4.23;;;;;;;;;;5028537;28;20459;-79
2023/09/03 02:30:22;;;;;;;7.23;3.87;;;;;;;;;;5026230;28;20456;-80
2023/09/03 02:32:49;;;;;;;5.67;3.50;;;;;;;;;;5028455;28;20501;-79
2023/09/03 02:35:18;;;;;;;8.93;3.50;;;;;;;;;;5024831;28;20451;-78
2023/09/03 02:37:46;;;;;;;9.50;4.70;;;;;;;;;;5030458;28;20491;-79
2023/09/03 02:40:19;;;;;;;9.03;5.07;;;;;;;;;;5023958;28;20490;-79
2023/09/03 02:42:46;;;;;;;7.77;4.43;;;;;;;;;;5027660;28;20509;-78
2023/09/03 02:45:14;;;;;;;7.03;4.20;;;;;;;;;;5026042;28;20455;-80
2023/09/03 02:47:42;;;;;;;6.93;4.40;;;;;;;;;;5028276;28;20601;-80
2023/09/03 02:50:09;;;;;;;7.60;4.10;;;;;;;;;;5029153;28;20439;-79
2023/09/03 02:52:38;;;;;;;5.53;4.13;;;;;;;;;;5025265;28;20577;-79
2023/09/03 02:55:06;;;;;;;7.73;4.63;;;;;;;;;;5032290;28;20454;-80
2023/09/03 02:57:34;;;;;;;7.50;4.00;;;;;;;;;;5025509;28;20486;-79
2023/09/03 03:00:08;;;;;;;7.20;5.10;;;;;;;;;;5028756;28;20525;-78
2023/09/03 03:02:35;;;;;;;7.50;4.60;;;;;;;;;;5024261;28;20841;-79
2023/09/03 03:05:04;;;;;;;5.50;3.97;;;;;;;;;;5028546;28;20452;-79
2023/09/03 03:07:32;;;;;;;10.13;4.43;;;;;;;;;;5029123;28;20447;-79
2023/09/03 03:10:09;;;;;;;7.30;4.80;;;;;;;;;;5025581;28;21157;-79
2023/09/03 03:12:37;;;;;;;8.63;4.73;;;;;;;;;;5028500;28;20514;-80
2023/09/03 03:15:05;;;;;;;9.17;4.43;;;;;;;;;;5028995;28;20733;-79
2023/09/03 03:17:32;;;;;;;5.50;4.40;;;;;;;;;;5027949;28;20517;-79
2023/09/03 03:20:07;;;;;;;6.37;5.27;;;;;;;;;;5027559;28;20529;-80
2023/09/03 03:22:35;;;;;;;5.70;4.10;;;;;;;;;;5030159;28;20872;-78
2023/09/03 03:25:04;;;;;;;5.93;4.00;;;;;;;;;;5030501;28;20521;-78
2023/09/03 03:27:31;;;;;;;6.47;4.50;;;;;;;;;;5029547;28;20463;-79
2023/09/03 03:30:06;;;;;;;7.90;4.30;;;;;;;;;;5027198;28;20579;-79
2023/09/03 03:32:34;;;;;;;6.63;4.20;;;;;;;;;;5028566;28;20522;-79
2023/09/03 03:35:01;;;;;;;6.73;4.83;;;;;;;;;;5026474;28;20744;-79
2023/09/03 03:37:29;;;;;;;7.67;4.77;;;;;;;;;;5026995;28;21048;-79
2023/09/03 03:39:57;;;;;;;6.40;4.80;;;;;;;;;;5027555;28;20479;-79
2023/09/03 03:42:26;;;;;;;5.83;4.27;;;;;;;;;;5030365;28;20490;-78
2023/09/03 03:44:53;;;;;;;5.60;3.70;;;;;;;;;;5020777;28;20790;-80
2023/09/03 03:47:21;;;;;;;6.17;3.53;;;;;;;;;;5016678;28;20482;-79
2023/09/03 03:49:48;;;;;;;8.00;5.00;;;;;;;;;;5027061;28;20470;-78
2023/09/03 03:52:17;;;;;;;5.87;4.07;;;;;;;;;;5027269;28;20463;-79
2023/09/03 03:54:45;;;;;;;8.00;4.30;;;;;;;;;;5028150;28;20465;-79
2023/09/03 03:57:12;;;;;;;8.20;4.57;;;;;;;;;;5017390;28;20449;-79
2023/09/03 03:59:41;;;;;;;6.00;4.10;;;;;;;;;;5022205;28;20483;-79
2023/09/03 04:02:09;;;;;;;5.63;4.40;;;;;;;;;;5027902;28;20515;-79
2023/09/03 04:04:36;;;;;;;8.37;5.07;;;;;;;;;;5026358;28;20534;-79
2023/09/03 04:07:04;;;;;;;7.33;4.80;;;;;;;;;;5025492;28;20454;-79
2023/09/03 04:09:31;;;;;;;7.33;3.50;;;;;;;;;;5026943;28;20455;-79
2023/09/03 04:11:59;;;;;;;8.10;4.43;;;;;;;;;;5027966;28;20691;-80
2023/09/03 04:14:26;;;;;;;8.83;4.00;;;;;;;;;;5027141;28;20432;-79
2023/09/03 04:16:55;;;;;;;11.87;5.23;;;;;;;;;;5025304;28;20529;-78
2023/09/03 04:19:23;;;;;;;6.10;3.70;;;;;;;;;;5025077;28;20521;-79
2023/09/03 04:21:50;;;;;;;5.93;4.73;;;;;;;;;;5026722;28;20447;-78
2023/09/03 04:24:18;;;;;;;7.93;3.83;;;;;;;;;;5025120;28;20460;-79
2023/09/03 04:26:45;;;;;;;8.73;4.20;;;;;;;;;;5025559;28;20486;-78
2023/09/03 04:29:13;;;;;;;7.97;4.40;;;;;;;;;;5026303;28;20447;-79
2023/09/03 04:31:40;;;;;;;6.33;3.80;;;;;;;;;;5027390;28;20454;-78
2023/09/03 04:34:09;;;;;;;12.30;5.10;;;;;;;;;;5024517;28;20463;-78
2023/09/03 04:36:37;;;;;;;7.23;4.40;;;;;;;;;;5028781;28;20465;-78
2023/09/03 04:39:04;;;;;;;6.80;5.77;;;;;;;;;;5025655;28;20502;-80
2023/09/03 04:41:33;;;;;;;7.40;4.90;;;;;;;;;;5028447;28;20517;-80
2023/09/03 04:44:10;;;;;;;7.70;4.80;;;;;;;;;;5026232;28;20451;-78
2023/09/03 04:46:37;;;;;;;6.83;4.33;;;;;;;;;;5029320;28;20451;-80
2023/09/03 04:49:05;;;;;;;7.20;4.20;;;;;;;;;;5028562;28;20455;-79
2023/09/03 04:51:34;;;;;;;6.70;3.70;;;;;;;;;;5028028;28;20459;-80
2023/09/03 04:54:02;;;;;;;6.57;4.10;;;;;;;;;;5028316;28;20455;-78
2023/09/03 04:56:29;;;;;;;6.70;4.13;;;;;;;;;;5029282;28;20507;-79
2023/09/03 04:58:57;;;;;;;6.13;4.00;;;;;;;;;;5029276;28;20441;-79
2023/09/03 05:01:24;;;;;;;6.90;4.20;;;;;;;;;;5028765;28;20502;-79
2023/09/03 05:03:52;;;;;;;7.50;4.43;;;;;;;;;;5029464;28;20458;-79
2023/09/03 05:06:20;;;;;;;8.40;3.80;;;;;;;;;;5029179;28;20459;-79
2023/09/03 05:08:49;;;;;;;6.33;4.20;;;;;;;;;;5028571;28;20447;-80
2023/09/03 05:11:17;;;;;;;7.27;4.47;;;;;;;;;;5029659;28;20451;-80
2023/09/03 05:13:44;;;;;;;7.23;4.57;;;;;;;;;;5028613;28;20478;-80
2023/09/03 05:16:12;;;;;;;5.03;3.90;;;;;;;;;;5027642;28;20466;-80
2023/09/03 05:18:39;;;;;;;7.70;4.30;;;;;;;;;;5028360;28;20474;-79
2023/09/03 05:21:08;;;;;;;6.33;4.00;;;;;;;;;;5029301;28;20529;-80
2023/09/03 05:23:36;;;;;;;5.83;4.53;;;;;;;;;;5028340;28;20451;-80
2023/09/03 05:26:05;;;;;;;5.90;4.20;;;;;;;;;;5029577;28;20447;-79
2023/09/03 05:28:33;;;;;;;4.57;3.97;;;;;;;;;;5029311;28;20444;-80
2023/09/03 05:31:01;;;;;;;8.63;4.20;;;;;;;;;;5029869;28;20865;-79
2023/09/03 05:33:28;;;;;;;8.00;4.10;;;;;;;;;;5028423;28;20467;-79
2023/09/03 05:35:56;;;;;;;8.27;4.67;;;;;;;;;;5029084;28;20827;-79
2023/09/03 05:38:23;;;;;;;7.80;4.40;;;;;;;;;;5029302;28;20519;-79
2023/09/03 05:40:51;;;;;;;7.40;4.50;;;;;;;;;;5029016;28;20487;-78
2023/09/03 05:43:20;;;;;;;9.67;4.50;;;;;;;;;;5026750;28;20703;-78
2023/09/03 05:45:47;;;;;;;5.77;3.60;;;;;;;;;;5028467;28;20462;-79
2023/09/03 05:48:15;;;;;;;6.00;4.57;;;;;;;;;;5027962;28;20497;-79
2023/09/03 05:50:42;;;;;;;6.40;5.20;;;;;;;;;;5029136;28;20513;-79
2023/09/03 05:53:10;;;;;;;6.77;5.10;;;;;;;;;;5031255;28;20455;-80
2023/09/03 05:55:39;;;;;;;15.73;4.63;;;;;;;;;;5032007;28;20448;-78
2023/09/03 05:58:07;;;;;;;9.43;5.30;;;;;;;;;;5030227;28;20589;-77
2023/09/03 06:00:41;;;;;;;14.63;4.90;;;;;;;;;;5031398;28;20573;-79
2023/09/03 06:03:09;;;;;;;6.20;4.90;;;;;;;;;;5030524;28;20461;-80
2023/09/03 06:05:37;;;;;;;6.67;5.37;;;;;;;;;;5031940;28;20431;-79
2023/09/03 06:08:05;;;;;;;5.93;4.60;;;;;;;;;;5028733;28;20955;-79
2023/09/03 06:10:32;;;;;;;8.67;5.00;;;;;;;;;;5031042;28;20450;-79
2023/09/03 06:13:00;;;;;;;8.53;4.57;;;;;;;;;;5028616;28;20481;-78
2023/09/03 06:15:28;;;;;;;6.53;4.50;;;;;;;;;;5028322;28;20489;-79
2023/09/03 06:17:59;;;;;;;5.90;4.23;;;;;;;;;;5027651;28;20502;-78
2023/09/03 06:20:27;;;;;;;5.47;4.50;;;;;;;;;;5027729;28;20475;-80
2023/09/03 06:22:55;;;;;;;7.23;4.40;;;;;;;;;;5026303;28;20572;-79
2023/09/03 06:25:23;;;;;;;7.63;4.60;;;;;;;;;;5030264;28;20581;-79
2023/09/03 06:27:51;;;;;;;6.17;4.73;;;;;;;;;;5029079;28;20458;-79
2023/09/03 06:30:19;;;;;;;7.13;4.47;;;;;;;;;;5027103;28;20535;-80
2023/09/03 06:32:47;;;;;;;8.23;3.70;;;;;;;;;;5025509;28;20827;-80
2023/09/03 06:35:16;;;;;;;5.10;3.70;;;;;;;;;;5026354;28;20447;-80
2023/09/03 06:37:44;;;;;;;7.67;6.27;;;;;;;;;;5025594;28;20459;-79
2023/09/03 06:40:18;;;;;;;6.10;3.53;;;;;;;;;;5025709;28;20451;-78
2023/09/03 06:42:45;;;;;;;7.30;3.60;;;;;;;;;;5027963;28;20455;-80
2023/09/03 06:45:16;;;;;;;6.20;3.80;;;;;;;;;;5029762;28;20451;-79
2023/09/03 06:47:43;;;;;;;6.87;3.93;;;;;;;;;;5027376;28;20447;-78
2023/09/03 06:50:16;;;;;;;6.27;3.10;;;;;;;;;;5029507;28;20527;-80
2023/09/03 06:52:45;;;;;;;7.63;3.47;;;;;;;;;;5030066;28;20451;-79
2023/09/03 06:55:12;;;;;;;5.73;3.93;;;;;;;;;;5028616;28;20462;-79
2023/09/03 06:57:40;;;;;;;5.20;3.10;;;;;;;;;;5029119;28;20462;-79
2023/09/03 07:00:09;;;;;;;4.43;2.83;;;;;;;;;;5029034;28;20455;-79
2023/09/03 07:02:37;;;;;;;4.97;2.67;;;;;;;;;;5026695;28;20484;-78
2023/09/03 07:05:04;;;;;;;12.43;3.00;;;;;;;;;;5025919;28;20490;-78
2023/09/03 07:07:32;;;;;;;6.63;2.93;;;;;;;;;;5027349;28;20474;-78
2023/09/03 07:10:09;;;;;;;6.63;2.57;;;;;;;;;;5022836;28;20452;-78
2023/09/03 07:12:37;;;;;;;4.57;2.43;;;;;;;;;;5026157;28;20461;-79
2023/09/03 07:15:05;;;;;;;5.83;2.60;;;;;;;;;;5026028;28;20553;-79
2023/09/03 07:17:33;;;;;;;10.37;2.83;;;;;;;;;;5026400;28;20496;-78
2023/09/03 07:20:07;;;;;;;5.93;1.90;;;;;;;;;;5023927;28;20501;-79
2023/09/03 07:22:35;;;;;;;6.90;2.87;;;;;;;;;;5025700;28;20490;-79
2023/09/03 07:25:04;;;;;;;7.83;2.30;;;;;;;;;;5024449;28;20543;-78
2023/09/03 07:27:32;;;;;;;4.73;1.93;;;;;;;;;;5027219;28;20466;-78
2023/09/03 07:30:06;;;;;;;8.00;2.23;;;;;;;;;;5025526;28;20944;-78
2023/09/03 07:32:33;;;;;;;4.20;1.57;;;;;;;;;;5024165;28;20612;-78
2023/09/03 07:35:01;;;;;;;5.93;2.20;;;;;;;;;;5023312;28;20744;-78
2023/09/03 07:37:34;;;;;;;4.27;1.60;;;;;;;;;;5023397;28;20522;-78
2023/09/03 07:40:10;;;;;;;5.10;1.63;;;;;;;;;;5024386;28;20455;-78
2023/09/03 07:42:37;;;;;;;6.23;1.37;;;;;;;;;;5030309;28;20493;-79
2023/09/03 07:45:05;;;;;;;8.50;1.70;;;;;;;;;;5029923;28;20524;-79
2023/09/03 07:47:33;;;;;;;6.50;1.70;;;;;;;;;;5027549;28;20454;-79
2023/09/03 07:50:08;;;;;;;4.07;1.30;;;;;;;;;;5023878;28;20732;-79
2023/09/03 07:52:36;;;;;;;4.40;1.13;;;;;;;;;;5023483;28;20465;-78
2023/09/03 07:55:04;;;;;;;4.60;1.50;;;;;;;;;;5021976;28;20526;-78
2023/09/03 07:57:35;;;;;;;4.33;1.40;;;;;;;;;;5022088;28;20451;-80
2023/09/03 08:00:07;;;;;;;4.90;1.23;;;;;;;;;;5024167;28;20470;-80
2023/09/03 08:02:35;;;;;;;4.80;1.37;;;;;;;;;;5021702;28;20651;-79
2023/09/03 08:05:03;;;;;;;4.77;1.10;;;;;;;;;;5024720;28;20459;-78
2023/09/03 08:07:31;;;;;;;4.23;1.53;;;;;;;;;;5021126;28;20455;-78
2023/09/03 08:10:09;;;;;;;5.03;1.63;;;;;;;;;;5021418;28;20452;-79
2023/09/03 08:12:38;;;;;;;3.90;1.00;;;;;;;;;;5022136;28;20458;-78
2023/09/03 08:15:06;;;;;;;6.67;1.93;;;;;;;;;;5021128;28;20873;-79
2023/09/03 08:17:34;;;;;;;4.43;1.23;;;;;;;;;;5025371;28;20549;-79
2023/09/03 08:20:18;;;;;;;4.67;1.13;;;;;;;;;;5024205;28;20542;-79
2023/09/03 08:22:47;;;;;;;4.37;1.00;;;;;;;;;;5025179;28;20560;-79
2023/09/03 08:25:15;;;;;;;4.30;0.93;;;;;;;;;;5023807;28;20470;-78
2023/09/03 08:27:45;;;;;;;4.50;1.23;;;;;;;;;;5021501;28;20466;-79
2023/09/03 08:30:18;;;;;;;4.47;1.10;;;;;;;;;;5023663;28;20455;-77
2023/09/03 08:32:47;;;;;;;7.17;1.13;;;;;;;;;;5023406;28;20445;-79
2023/09/03 08:35:15;;;;;;;4.20;1.10;;;;;;;;;;5022643;28;20479;-78
2023/09/03 08:37:44;;;;;;;5.40;1.00;;;;;;;;;;5023814;28;20459;-80
2023/09/03 08:40:18;;;;;;;6.50;1.90;;;;;;;;;;5022508;28;20546;-79
2023/09/03 08:42:49;;;;;;;5.33;1.27;;;;;;;;;;5019003;28;20490;-79
2023/09/03 08:45:18;;;;;;;8.70;1.10;;;;;;;;;;5019081;28;20473;-78
2023/09/03 08:47:46;;;;;;;4.90;1.30;;;;;;;;;;5018941;28;20447;-80
2023/09/03 08:50:18;;;;;;;4.53;1.13;;;;;;;;;;5020136;28;20920;-80
2023/09/03 08:52:46;;;;;;;4.57;1.00;;;;;;;;;;5016629;28;20447;-81
2023/09/03 08:55:21;;;;;;;10.63;1.83;;;;;;;;;;5018334;28;20462;-80
2023/09/03 08:57:57;;;;;;;4.47;1.20;;;;;;;;;;5024701;28;20526;-80
2023/09/03 09:00:25;;;;;;;3.93;1.00;;;;;;;;;;5022364;28;20436;-78
2023/09/03 09:02:54;;;;;;;4.47;1.10;;;;;;;;;;5020252;28;20556;-78
2023/09/03 09:05:22;;;;;;;5.00;1.43;;;;;;;;;;5021145;28;20444;-79
2023/09/03 09:07:50;;;;;;;4.70;1.27;;;;;;;;;;5021391;28;20470;-79
2023/09/03 09:10:22;;;;;;;6.20;1.40;;;;;;;;;;5020337;28;20562;-78
2023/09/03 09:12:53;;;;;;;4.90;1.20;;;;;;;;;;5022263;28;20721;-78
2023/09/03 09:15:22;;;;;;;5.43;1.40;;;;;;;;;;5023471;28;20474;-79
2023/09/03 09:17:50;;;;;;;5.70;1.43;;;;;;;;;;5022117;28;20455;-78
2023/09/03 09:20:20;;;;;;;6.83;1.43;;;;;;;;;;5020952;28;20487;-79
2023/09/03 09:22:49;;;;;;;6.27;1.30;;;;;;;;;;5019376;28;20501;-79
2023/09/03 09:25:21;;;;;;;6.43;1.77;;;;;;;;;;5022964;28;20611;-79
2023/09/03 09:27:50;;;;;;;6.00;1.30;;;;;;;;;;5026097;28;20467;-78
2023/09/03 09:30:21;;;;;;;5.10;1.27;;;;;;;;;;5026241;28;20566;-78
2023/09/03 09:33:03;;;;;;;5.50;1.50;;;;;;;;;;5024406;28;20491;-78
2023/09/03 09:35:31;;;;;;;5.40;1.17;;;;;;;;;;5026447;28;20491;-79
2023/09/03 09:38:06;;;;;;;4.90;1.30;;;;;;;;;;5025721;28;20451;-78
2023/09/03 09:40:36;;;;;;;4.73;1.23;;;;;;;;;;5025433;28;20447;-80
2023/09/03 09:43:05;;;;;;;5.67;1.30;;;;;;;;;;5023211;28;20786;-79
2023/09/03 09:45:33;;;;;;;6.30;1.40;;;;;;;;;;5022684;28;20527;-77
2023/09/03 09:48:07;;;;;;;6.27;1.20;;;;;;;;;;5024819;28;20448;-78
2023/09/03 09:50:37;;;;;;;7.90;1.37;;;;;;;;;;5021670;28;20463;-79
2023/09/03 09:53:05;;;;;;;5.33;1.97;;;;;;;;;;5023959;28;20525;-79
2023/09/03 09:55:32;;;;;;;4.57;1.37;;;;;;;;;;5022264;28;20493;-79
2023/09/03 09:58:02;;;;;;;4.80;1.37;;;;;;;;;;5021415;28;20805;-79
2023/09/03 10:00:33;;;;;;;4.00;1.37;;;;;;;;;;5022286;28;20451;-78
2023/09/03 10:03:01;;;;;;;5.97;1.40;;;;;;;;;;5023723;28;20490;-79
2023/09/03 10:05:31;;;;;;;4.00;1.00;;;;;;;;;;5023116;28;20517;-78
2023/09/03 10:07:59;;;;;;;5.20;1.00;;;;;;;;;;5023066;28;20474;-77
2023/09/03 10:10:28;;;;;;;5.37;1.00;;;;;;;;;;5022636;28;20903;-79
2023/09/03 10:12:56;;;;;;;11.23;1.30;;;;;;;;;;5020393;28;20494;-78
2023/09/03 10:15:28;;;;;;;6.33;1.37;;;;;;;;;;5025310;28;20804;-81
2023/09/03 10:17:59;;;;;;;6.33;1.00;;;;;;;;;;5023537;28;20482;-79
2023/09/03 10:20:31;;;;;;;6.10;1.33;;;;;;;;;;5027624;28;20482;-78
2023/09/03 10:23:02;;;;;;;7.83;1.83;;;;;;;;;;5023176;28;20566;-79
2023/09/03 10:25:33;;;;;;;5.47;1.10;;;;;;;;;;5021087;28;20462;-78
2023/09/03 10:28:02;;;;;;;5.70;1.13;;;;;;;;;;5023322;28;20726;-78
2023/09/03 10:30:32;;;;;;;5.93;1.40;;;;;;;;;;5025533;28;20748;-78
2023/09/03 10:33:01;;;;;;;7.07;1.47;;;;;;;;;;5024547;28;20444;-78
2023/09/03 10:35:29;;;;;;;6.53;1.33;;;;;;;;;;5024143;28;20467;-78
2023/09/03 10:37:57;;;;;;;5.50;1.10;;;;;;;;;;5023719;28;20462;-79
2023/09/03 10:40:28;;;;;;;8.30;1.60;;;;;;;;;;5025000;28;20503;-78
2023/09/03 10:43:18;;;;;;;6.03;1.27;;;;;;;;;;5027448;28;20491;-79
2023/09/03 10:46:01;;;;;;;6.13;1.30;;;;;;;;;;5024335;28;20451;-78
2023/09/03 10:48:30;;;;;;;5.60;1.50;;;;;;;;;;5021447;28;20881;-78
2023/09/03 10:50:59;;;;;;;5.90;1.30;;;;;;;;;;5024537;28;20690;-78
2023/09/03 10:53:40;;;;;;;6.30;1.40;;;;;;;;;;5019746;28;20877;-78
2023/09/03 10:56:11;;;;;;;5.10;1.07;;;;;;;;;;5022669;28;20517;-79
2023/09/03 10:58:54;;;;;;;5.00;1.40;;;;;;;;;;5022037;28;20463;-78
2023/09/03 11:01:24;;;;;;;4.67;1.17;;;;;;;;;;5021715;28;20462;-78
2023/09/03 11:03:53;;;;;;;7.87;1.80;;;;;;;;;;5019334;28;20545;-78
2023/09/03 11:06:22;;;;;;;6.17;1.20;;;;;;;;;;5021611;28;20459;-80
2023/09/03 11:09:11;;;;;;;5.57;1.53;;;;;;;;;;5006223;28;20483;-79
2023/09/03 11:11:42;;;;;;;5.17;1.10;;;;;;;;;;5023269;28;20550;-78
2023/09/03 11:14:11;;;;;;;5.80;1.27;;;;;;;;;;5002711;28;20467;-77
2023/09/03 11:16:39;;;;;;;4.80;1.10;;;;;;;;;;5018312;28;20486;-80
2023/09/03 11:19:10;;;;;;;5.70;1.30;;;;;;;;;;5021730;28;20763;-78
2023/09/03 11:21:39;;;;;;;5.90;1.30;;;;;;;;;;5019442;28;20479;-77
2023/09/03 11:24:09;;;;;;;7.83;1.67;;;;;;;;;;5018930;28;20456;-79
2023/09/03 11:26:37;;;;;;;6.43;1.10;;;;;;;;;;5022267;28;20447;-78
2023/09/03 11:29:19;;;;;;;5.20;1.30;;;;;;;;;;5018112;28;20459;-78
2023/09/03 11:31:48;;;;;;;5.87;1.77;;;;;;;;;;5023661;28;20439;-80
2023/09/03 11:34:19;;;;;;;6.43;1.40;;;;;;;;;;5027147;28;20509;-78
2023/09/03 11:36:49;;;;;;;5.27;1.13;;;;;;;;;;5021513;28;20458;-80
2023/09/03 11:39:18;;;;;;;5.30;1.53;;;;;;;;;;5022632;28;20459;-78
2023/09/03 11:41:46;;;;;;;4.70;1.50;;;;;;;;;;5024411;28;20546;-78
2023/09/03 11:44:16;;;;;;;4.13;1.60;;;;;;;;;;5023672;28;20459;-78
2023/09/03 11:46:58;;;;;;;4.17;1.47;;;;;;;;;;5023745;28;20439;-79
2023/09/03 11:49:26;;;;;;;4.20;1.40;;;;;;;;;;5020586;28;20818;-77
2023/09/03 11:52:09;;;;;;;4.83;1.30;;;;;;;;;;5020470;28;20538;-78
2023/09/03 11:54:36;;;;;;;4.97;1.50;;;;;;;;;;5017051;28;21075;-78
2023/09/03 11:57:05;;;;;;;5.87;1.70;;;;;;;;;;5014746;28;20486;-78
2023/09/03 11:59:35;;;;;;;4.50;1.77;;;;;;;;;;5016104;28;20729;-78
2023/09/03 12:02:03;;;;;;;4.10;1.17;;;;;;;;;;5018199;28;20455;-79
2023/09/03 12:04:33;;;;;;;5.57;1.43;;;;;;;;;;5015636;28;20447;-76
2023/09/03 12:07:03;;;;;;;3.97;1.40;;;;;;;;;;5014974;28;20443;-78
2023/09/03 12:09:31;;;;;;;5.27;1.70;;;;;;;;;;5020049;28;20447;-78
2023/09/03 12:11:59;;;;;;;3.80;1.50;;;;;;;;;;5017621;28;20444;-79
2023/09/03 12:14:31;;;;;;;3.80;1.30;;;;;;;;;;5015517;28;20463;-77
2023/09/03 12:17:00;;;;;;;4.20;1.17;;;;;;;;;;5016727;28;20455;-79
2023/09/03 12:19:39;;;;;;;3.30;1.20;;;;;;;;;;5015002;28;20467;-79
2023/09/03 12:22:07;;;;;;;4.53;1.30;;;;;;;;;;5015457;28;20456;-79
2023/09/03 12:24:35;;;;;;;10.90;1.40;;;;;;;;;;5011543;28;20440;-79
2023/09/03 12:27:09;;;;;;;5.10;1.60;;;;;;;;;;5012917;28;20447;-77
2023/09/03 12:29:38;;;;;;;6.97;1.30;;;;;;;;;;5016522;28;20800;-77
2023/09/03 12:32:08;;;;;;;4.90;1.53;;;;;;;;;;5015072;28;20474;-79
2023/09/03 12:34:39;;;;;;;4.27;1.70;;;;;;;;;;5016659;28;20443;-76
2023/09/03 12:37:11;;;;;;;3.47;1.40;;;;;;;;;;5014479;28;20538;-80
2023/09/03 12:39:40;;;;;;;5.03;1.40;;;;;;;;;;5017888;28;20467;-77
2023/09/03 12:42:11;;;;;;;4.17;1.53;;;;;;;;;;5012875;28;20455;-77
2023/09/03 12:44:43;;;;;;;4.30;1.90;;;;;;;;;;4979445;28;20447;-76
2023/09/03 12:47:12;;;;;;;4.47;1.33;;;;;;;;;;5011776;28;20523;-77
2023/09/03 12:49:41;;;;;;;4.80;1.23;;;;;;;;;;5015015;28;20748;-76
2023/09/03 12:52:09;;;;;;;2.60;1.30;;;;;;;;;;5012857;28;20447;-77
2023/09/03 12:54:39;;;;;;;6.07;2.60;;;;;;;;;;5019368;28;20463;-79
2023/09/03 12:57:07;;;;;;;2.87;1.37;;;;;;;;;;5016612;28;20664;-77
2023/09/03 12:59:35;;;;;;;2.93;1.50;;;;;;;;;;5014980;28;20525;-77
2023/09/03 13:02:05;;;;;;;3.00;1.70;;;;;;;;;;5010868;28;20456;-78
2023/09/03 13:04:40;;;;;;;3.37;1.20;;;;;;;;;;5019098;28;20606;-77
2023/09/03 13:07:09;;;;;;;1.90;1.13;;;;;;;;;;5022216;28;20453;-77
2023/09/03 13:09:37;;;;;;;3.70;1.23;;;;;;;;;;5018971;28;20558;-78
2023/09/03 13:12:06;;;;;;;3.03;1.20;;;;;;;;;;5019017;28;20448;-77
2023/09/03 13:14:35;;;;;;;3.67;1.30;;;;;;;;;;5014936;28;20571;-79
2023/09/03 13:17:02;;;;;;;2.60;1.10;;;;;;;;;;5013214;28;20457;-78
2023/09/03 13:19:30;;;;;;;2.57;1.13;;;;;;;;;;5012148;28;20558;-78
2023/09/03 13:22:00;;;;;;;2.47;1.37;;;;;;;;;;5008086;28;20467;-79
2023/09/03 13:24:30;;;;;;;3.40;1.00;;;;;;;;;;5004289;28;20550;-77
2023/09/03 13:27:01;;;;;;;4.23;1.40;;;;;;;;;;5012816;28;20467;-78
2023/09/03 13:29:29;;;;;;;2.33;1.20;;;;;;;;;;5015678;28;20459;-77
2023/09/03 13:31:57;;;;;;;5.30;1.40;;;;;;;;;;5013682;28;20470;-79
2023/09/03 13:34:25;;;;;;;2.30;1.20;;;;;;;;;;5014788;28;20818;-78
2023/09/03 13:36:53;;;;;;;2.87;1.47;;;;;;;;;;5019559;28;20451;-79
2023/09/03 13:39:26;;;;;;;2.47;1.33;;;;;;;;;;5015193;28;20553;-77
2023/09/03 13:41:54;;;;;;;4.10;1.20;;;;;;;;;;5015625;28;20451;-78
2023/09/03 13:44:22;;;;;;;3.47;1.87;;;;;;;;;;5017818;28;20534;-77
2023/09/03 13:46:49;;;;;;;5.30;1.50;;;;;;;;;;5014776;28;20459;-77
2023/09/03 13:49:22;;;;;;;2.60;1.40;;;;;;;;;;5000983;28;20478;-79
2023/09/03 13:51:53;;;;;;;3.80;1.50;;;;;;;;;;4999173;28;20470;-78
2023/09/03 13:54:21;;;;;;;2.80;1.30;;;;;;;;;;5008685;28;20584;-77
2023/09/03 13:56:50;;;;;;;2.93;1.67;;;;;;;;;;5014540;28;20458;-77
2023/09/03 13:59:18;;;;;;;3.50;1.10;;;;;;;;;;5015630;28;20483;-77
2023/09/03 14:01:48;;;;;;;4.00;1.47;;;;;;;;;;5018091;28;20459;-78
2023/09/03 14:04:15;;;;;;;2.50;1.13;;;;;;;;;;5016783;28;20522;-77
2023/09/03 14:06:43;;;;;;;2.60;1.53;;;;;;;;;;5015458;28;20466;-78
2023/09/03 14:09:11;;;;;;;2.70;1.53;;;;;;;;;;5013288;28;20531;-79
2023/09/03 14:11:39;;;;;;;3.17;1.33;;;;;;;;;;5019060;28;20455;-79
2023/09/03 14:14:08;;;;;;;2.60;1.30;;;;;;;;;;5015205;28;20459;-77
2023/09/03 14:16:35;;;;;;;2.27;1.07;;;;;;;;;;5015066;28;20816;-77
2023/09/03 14:19:03;;;;;;;3.37;1.67;;;;;;;;;;5015467;28;20469;-78
2023/09/03 14:21:30;;;;;;;3.03;1.30;;;;;;;;;;5013798;28;20467;-78
2023/09/03 14:23:59;;;;;;;5.43;1.23;;;;;;;;;;5022570;28;20495;-79
2023/09/03 14:26:26;;;;;;;4.17;1.70;;;;;;;;;;5013675;28;20807;-79
2023/09/03 14:28:55;;;;;;;2.60;1.27;;;;;;;;;;5015140;28;20447;-79
2023/09/03 14:31:24;;;;;;;3.40;1.40;;;;;;;;;;5017571;28;20482;-77
2023/09/03 14:33:52;;;;;;;2.30;1.00;;;;;;;;;;5014099;28;20459;-78
2023/09/03 14:36:20;;;;;;;2.30;1.30;;;;;;;;;;5020723;28;20493;-77
2023/09/03 14:38:52;;;;;;;2.90;1.30;;;;;;;;;;5005489;28;21499;-78
2023/09/03 14:41:19;;;;;;;3.53;2.53;;;;;;;;;;5012319;28;20463;-77
2023/09/03 14:43:50;;;;;;;2.40;1.10;;;;;;;;;;5018362;28;20495;-77
2023/09/03 14:46:18;;;;;;;3.80;2.73;;;;;;;;;;5020033;28;20523;-80
2023/09/03 14:48:49;;;;;;;3.43;1.50;;;;;;;;;;5009673;28;20543;-78
2023/09/03 14:51:18;;;;;;;3.33;1.33;;;;;;;;;;5020856;28;20533;-78
2023/09/03 14:53:48;;;;;;;3.50;1.20;;;;;;;;;;5017434;28;20499;-77
2023/09/03 14:56:20;;;;;;;2.87;1.00;;;;;;;;;;5016388;28;20483;-78